sensor_id;sensor_type;location;lat;lon;timestamp;pressure;altitude;pressure_sealevel;temperature;humidity
61014;BME280;46899;47.542;19.082;2024-03-23T00:53:58;100138.63;;;6.64;100.00
61014;BME280;46899;47.542;19.082;2024-03-23T00:57:00;100129.06;;;6.67;100.00
61014;BME280;46899;47.542;19.082;2024-03-23T01:00:02;100130.09;;;6.60;100.00
61014;BME280;46899;47.542;19.082;2024-03-23T01:03:04;100123.25;;;6.58;100.00
61014;BME280;46899;47.542;19.082;2024-03-23T01:06:07;100125.13;;;6.51;100.00
61014;BME280;46899;47.542;19.082;2024-03-23T01:09:09;100116.69;;;6.43;100.00
61014;BME280;46899;47.542;19.082;2024-03-23T01:12:12;100107.44;;;6.33;100.00
61014;BME280;46899;47.542;19.082;2024-03-23T01:15:14;100104.97;;;6.27;100.00
61014;BME280;46899;47.542;19.082;2024-03-23T01:18:16;100104.06;;;6.30;100.00
61014;BME280;46899;47.542;19.082;2024-03-23T01:21:20;100103.34;;;6.23;100.00
61014;BME280;46899;47.542;19.082;2024-03-23T01:24:22;100085.34;;;6.20;100.00
61014;BME280;46899;47.542;19.082;2024-03-23T01:27:24;100080.16;;;6.20;100.00
61014;BME280;46899;47.542;19.082;2024-03-23T01:30:27;100086.28;;;6.16;100.00
61014;BME280;46899;47.542;19.082;2024-03-23T01:33:29;100082.09;;;6.12;100.00
61014;BME280;46899;47.542;19.082;2024-03-23T01:36:31;100087.31;;;6.09;100.00
61014;BME280;46899;47.542;19.082;2024-03-23T01:39:33;100083.97;;;6.04;100.00
61014;BME280;46899;47.542;19.082;2024-03-23T01:42:35;100091.72;;;6.04;100.00
61014;BME280;46899;47.542;19.082;2024-03-23T01:45:37;100093.34;;;6.08;100.00
61014;BME280;46899;47.542;19.082;2024-03-23T01:48:39;100085.78;;;6.00;100.00
61014;BME280;46899;47.542;19.082;2024-03-23T01:51:41;100078.13;;;5.94;100.00
61014;BME280;46899;47.542;19.082;2024-03-23T01:54:44;100076.53;;;5.89;100.00
61014;BME280;46899;47.542;19.082;2024-03-23T01:57:46;100075.59;;;5.93;100.00
61014;BME280;46899;47.542;19.082;2024-03-23T02:00:48;100078.19;;;5.91;100.00
61014;BME280;46899;47.542;19.082;2024-03-23T02:03:50;100074.75;;;5.92;100.00
61014;BME280;46899;47.542;19.082;2024-03-23T02:06:52;100071.34;;;5.89;100.00
61014;BME280;46899;47.542;19.082;2024-03-23T02:09:54;100073.94;;;5.89;100.00
61014;BME280;46899;47.542;19.082;2024-03-23T02:12:56;100061.97;;;5.85;100.00
61014;BME280;46899;47.542;19.082;2024-03-23T02:15:58;100062.94;;;5.79;100.00
61014;BME280;46899;47.542;19.082;2024-03-23T02:19:01;100055.25;;;5.75;100.00
61014;BME280;46899;47.542;19.082;2024-03-23T02:22:03;100057.06;;;5.71;100.00
61014;BME280;46899;47.542;19.082;2024-03-23T02:25:05;100050.94;;;5.77;100.00
61014;BME280;46899;47.542;19.082;2024-03-23T02:28:08;100045.78;;;5.75;100.00
61014;BME280;46899;47.542;19.082;2024-03-23T02:31:10;100048.47;;;5.72;100.00
61014;BME280;46899;47.542;19.082;2024-03-23T02:34:12;100043.22;;;5.75;100.00
61014;BME280;46899;47.542;19.082;2024-03-23T02:37:14;100035.31;;;5.86;100.00
61014;BME280;46899;47.542;19.082;2024-03-23T02:40:16;100032.69;;;5.87;100.00
61014;BME280;46899;47.542;19.082;2024-03-23T02:43:18;100029.78;;;6.01;100.00
61014;BME280;46899;47.542;19.082;2024-03-23T02:46:20;100021.13;;;6.05;100.00
61014;BME280;46899;47.542;19.082;2024-03-23T02:49:22;100021.06;;;6.06;100.00
61014;BME280;46899;47.542;19.082;2024-03-23T02:52:24;100019.19;;;6.13;100.00
61014;BME280;46899;47.542;19.082;2024-03-23T02:55:26;100012.16;;;6.19;100.00
61014;BME280;46899;47.542;19.082;2024-03-23T02:58:28;100004.09;;;6.33;100.00
61014;BME280;46899;47.542;19.082;2024-03-23T03:01:31;100016.75;;;6.45;100.00
61014;BME280;46899;47.542;19.082;2024-03-23T03:04:33;100016.81;;;6.42;100.00
61014;BME280;46899;47.542;19.082;2024-03-23T03:07:35;100010.03;;;6.37;100.00
61014;BME280;46899;47.542;19.082;2024-03-23T03:10:37;99999.63;;;6.40;100.00
61014;BME280;46899;47.542;19.082;2024-03-23T03:13:39;100002.06;;;6.46;100.00
61014;BME280;46899;47.542;19.082;2024-03-23T03:16:41;99992.66;;;6.43;100.00
61014;BME280;46899;47.542;19.082;2024-03-23T03:19:43;99996.78;;;6.50;100.00
61014;BME280;46899;47.542;19.082;2024-03-23T03:22:45;99994.28;;;6.47;100.00
61014;BME280;46899;47.542;19.082;2024-03-23T03:25:47;99999.41;;;6.49;100.00
61014;BME280;46899;47.542;19.082;2024-03-23T03:28:50;100002.97;;;6.45;100.00
61014;BME280;46899;47.542;19.082;2024-03-23T03:31:52;99989.25;;;6.43;100.00
61014;BME280;46899;47.542;19.082;2024-03-23T03:34:54;99990.78;;;6.50;100.00
61014;BME280;46899;47.542;19.082;2024-03-23T03:37:55;99993.16;;;6.57;100.00
61014;BME280;46899;47.542;19.082;2024-03-23T03:40:58;99986.94;;;6.64;100.00
61014;BME280;46899;47.542;19.082;2024-03-23T03:44:00;99982.72;;;6.62;100.00
61014;BME280;46899;47.542;19.082;2024-03-23T03:47:04;99987.94;;;6.60;100.00
61014;BME280;46899;47.542;19.082;2024-03-23T03:50:07;99981.16;;;6.56;100.00
61014;BME280;46899;47.542;19.082;2024-03-23T03:53:09;99981.91;;;6.60;100.00
61014;BME280;46899;47.542;19.082;2024-03-23T03:56:10;99979.31;;;6.61;100.00
61014;BME280;46899;47.542;19.082;2024-03-23T03:59:12;99979.19;;;6.64;100.00
61014;BME280;46899;47.542;19.082;2024-03-23T04:02:14;99973.09;;;6.68;100.00
61014;BME280;46899;47.542;19.082;2024-03-23T04:05:16;99975.50;;;6.74;100.00
61014;BME280;46899;47.542;19.082;2024-03-23T04:08:19;99975.56;;;6.73;100.00
61014;BME280;46899;47.542;19.082;2024-03-23T04:11:21;99970.28;;;6.76;100.00
61014;BME280;46899;47.542;19.082;2024-03-23T04:14:23;99974.50;;;6.80;100.00
61014;BME280;46899;47.542;19.082;2024-03-23T04:17:26;99970.06;;;6.85;100.00
61014;BME280;46899;47.542;19.082;2024-03-23T04:20:30;99967.25;;;6.93;100.00
61014;BME280;46899;47.542;19.082;2024-03-23T04:23:33;99954.25;;;6.96;100.00
61014;BME280;46899;47.542;19.082;2024-03-23T04:26:44;99968.84;;;6.98;100.00
61014;BME280;46899;47.542;19.082;2024-03-23T04:29:48;99958.56;;;6.95;100.00
61014;BME280;46899;47.542;19.082;2024-03-23T04:32:50;99955.25;;;6.92;100.00
61014;BME280;46899;47.542;19.082;2024-03-23T04:35:52;99955.06;;;6.98;100.00
61014;BME280;46899;47.542;19.082;2024-03-23T04:38:54;99951.41;;;7.05;100.00
61014;BME280;46899;47.542;19.082;2024-03-23T04:41:56;99950.69;;;7.00;100.00
61014;BME280;46899;47.542;19.082;2024-03-23T04:44:58;99949.75;;;7.02;100.00
61014;BME280;46899;47.542;19.082;2024-03-23T04:47:59;99955.53;;;7.12;100.00
61014;BME280;46899;47.542;19.082;2024-03-23T04:51:01;99958.22;;;7.09;100.00
61014;BME280;46899;47.542;19.082;2024-03-23T04:54:04;99959.78;;;7.14;100.00
61014;BME280;46899;47.542;19.082;2024-03-23T04:57:07;99946.56;;;7.25;100.00
61014;BME280;46899;47.542;19.082;2024-03-23T05:00:09;99944.69;;;7.30;100.00
61014;BME280;46899;47.542;19.082;2024-03-23T05:03:18;99944.59;;;7.33;100.00
61014;BME280;46899;47.542;19.082;2024-03-23T05:06:21;99949.16;;;7.54;100.00
61014;BME280;46899;47.542;19.082;2024-03-23T05:09:23;99951.72;;;7.55;100.00
61014;BME280;46899;47.542;19.082;2024-03-23T05:12:25;99945.50;;;7.61;100.00
61014;BME280;46899;47.542;19.082;2024-03-23T05:15:27;99947.00;;;7.68;100.00
61014;BME280;46899;47.542;19.082;2024-03-23T05:18:29;99944.38;;;7.70;100.00
61014;BME280;46899;47.542;19.082;2024-03-23T05:21:31;99947.63;;;7.76;100.00
61014;BME280;46899;47.542;19.082;2024-03-23T05:24:33;99944.97;;;7.79;100.00
61014;BME280;46899;47.542;19.082;2024-03-23T05:27:35;99944.47;;;7.94;100.00
61014;BME280;46899;47.542;19.082;2024-03-23T05:30:38;99945.09;;;8.02;100.00
61014;BME280;46899;47.542;19.082;2024-03-23T05:33:39;99935.38;;;8.09;100.00
61014;BME280;46899;47.542;19.082;2024-03-23T05:36:42;99940.03;;;8.25;100.00
61014;BME280;46899;47.542;19.082;2024-03-23T05:39:43;99935.69;;;8.27;100.00
61014;BME280;46899;47.542;19.082;2024-03-23T05:42:45;99940.22;;;8.47;100.00
61014;BME280;46899;47.542;19.082;2024-03-23T05:45:57;99932.78;;;8.63;100.00
61014;BME280;46899;47.542;19.082;2024-03-23T05:49:01;99930.00;;;8.69;100.00
61014;BME280;46899;47.542;19.082;2024-03-23T05:52:03;99930.22;;;8.86;100.00
61014;BME280;46899;47.542;19.082;2024-03-23T05:55:06;99929.34;;;8.87;100.00
61014;BME280;46899;47.542;19.082;2024-03-23T05:58:08;99924.47;;;9.03;100.00
61014;BME280;46899;47.542;19.082;2024-03-23T06:01:10;99931.13;;;9.10;100.00
61014;BME280;46899;47.542;19.082;2024-03-23T06:04:12;99931.53;;;9.22;100.00
61014;BME280;46899;47.542;19.082;2024-03-23T06:07:15;99932.66;;;9.38;100.00
61014;BME280;46899;47.542;19.082;2024-03-23T06:10:17;99930.00;;;9.40;100.00
61014;BME280;46899;47.542;19.082;2024-03-23T06:13:20;99931.16;;;9.56;100.00
61014;BME280;46899;47.542;19.082;2024-03-23T06:16:23;99917.75;;;9.67;100.00
61014;BME280;46899;47.542;19.082;2024-03-23T06:19:27;99911.22;;;9.78;100.00
61014;BME280;46899;47.542;19.082;2024-03-23T06:22:29;99911.88;;;9.61;100.00
61014;BME280;46899;47.542;19.082;2024-03-23T06:25:31;99909.94;;;9.67;100.00
61014;BME280;46899;47.542;19.082;2024-03-23T06:28:34;99901.69;;;10.00;100.00
61014;BME280;46899;47.542;19.082;2024-03-23T06:31:36;99894.34;;;10.73;100.00
61014;BME280;46899;47.542;19.082;2024-03-23T06:34:38;99890.94;;;11.49;99.52
61014;BME280;46899;47.542;19.082;2024-03-23T06:37:39;99885.69;;;14.32;83.61
61014;BME280;46899;47.542;19.082;2024-03-23T06:40:42;99897.69;;;14.21;78.46
61014;BME280;46899;47.542;19.082;2024-03-23T06:43:44;99892.34;;;12.96;84.94
61014;BME280;46899;47.542;19.082;2024-03-23T06:46:47;99887.94;;;12.12;91.21
61014;BME280;46899;47.542;19.082;2024-03-23T06:49:50;99897.13;;;11.65;95.34
61014;BME280;46899;47.542;19.082;2024-03-23T06:52:52;99909.37;;;11.26;98.20
61014;BME280;46899;47.542;19.082;2024-03-23T06:55:54;99903.75;;;11.35;97.78
61014;BME280;46899;47.542;19.082;2024-03-23T06:58:57;99897.69;;;11.53;96.85
61014;BME280;46899;47.542;19.082;2024-03-23T07:01:58;99902.47;;;11.81;95.59
61014;BME280;46899;47.542;19.082;2024-03-23T07:05:01;99894.53;;;11.84;94.51
61014;BME280;46899;47.542;19.082;2024-03-23T07:08:02;99887.56;;;12.01;92.97
61014;BME280;46899;47.542;19.082;2024-03-23T07:11:04;99882.94;;;12.25;91.69
61014;BME280;46899;47.542;19.082;2024-03-23T07:14:06;99882.34;;;12.54;89.67
61014;BME280;46899;47.542;19.082;2024-03-23T07:17:09;99876.81;;;13.58;84.30
61014;BME280;46899;47.542;19.082;2024-03-23T07:20:11;99883.59;;;14.97;76.87
61014;BME280;46899;47.542;19.082;2024-03-23T07:23:13;99880.53;;;15.04;74.45
61014;BME280;46899;47.542;19.082;2024-03-23T07:26:15;99879.37;;;17.58;63.18
61014;BME280;46899;47.542;19.082;2024-03-23T07:29:17;99882.88;;;18.99;54.65
61014;BME280;46899;47.542;19.082;2024-03-23T07:32:19;99873.66;;;19.05;53.06
61014;BME280;46899;47.542;19.082;2024-03-23T07:35:21;99870.34;;;17.86;56.68
61014;BME280;46899;47.542;19.082;2024-03-23T07:38:23;99856.50;;;16.85;60.71
61014;BME280;46899;47.542;19.082;2024-03-23T07:41:25;99853.00;;;16.07;64.39
61014;BME280;46899;47.542;19.082;2024-03-23T07:44:28;99844.19;;;15.82;65.54
61014;BME280;46899;47.542;19.082;2024-03-23T07:47:31;99836.28;;;15.41;67.73
61014;BME280;46899;47.542;19.082;2024-03-23T07:50:33;99818.91;;;15.54;67.33
61014;BME280;46899;47.542;19.082;2024-03-23T07:53:35;99832.09;;;14.54;72.61
61014;BME280;46899;47.542;19.082;2024-03-23T07:56:38;99831.88;;;14.43;73.44
61014;BME280;46899;47.542;19.082;2024-03-23T07:59:40;99822.38;;;14.70;72.86
61014;BME280;46899;47.542;19.082;2024-03-23T08:02:42;99820.91;;;14.80;72.20
61014;BME280;46899;47.542;19.082;2024-03-23T08:05:44;99822.00;;;14.62;73.25
61014;BME280;46899;47.542;19.082;2024-03-23T08:08:47;99821.84;;;14.79;73.17
61014;BME280;46899;47.542;19.082;2024-03-23T08:11:50;99825.69;;;14.87;72.64
61014;BME280;46899;47.542;19.082;2024-03-23T08:14:52;99817.63;;;14.90;72.55
61014;BME280;46899;47.542;19.082;2024-03-23T08:17:54;99818.53;;;15.18;72.06
61014;BME280;46899;47.542;19.082;2024-03-23T08:21:14;99816.13;;;15.00;72.23
61014;BME280;46899;47.542;19.082;2024-03-23T08:24:16;99812.34;;;15.33;70.65
61014;BME280;46899;47.542;19.082;2024-03-23T08:27:18;99811.78;;;15.83;69.39
61014;BME280;46899;47.542;19.082;2024-03-23T08:30:20;99799.19;;;16.39;66.36
61014;BME280;46899;47.542;19.082;2024-03-23T08:33:23;99802.44;;;16.18;66.47
61014;BME280;46899;47.542;19.082;2024-03-23T08:36:28;99804.19;;;15.78;68.43
61014;BME280;46899;47.542;19.082;2024-03-23T08:39:30;99789.09;;;15.82;68.65
61014;BME280;46899;47.542;19.082;2024-03-23T08:42:32;99782.47;;;16.28;67.17
61014;BME280;46899;47.542;19.082;2024-03-23T08:45:34;99790.94;;;16.71;65.43
61014;BME280;46899;47.542;19.082;2024-03-23T08:48:39;99786.28;;;16.99;63.91
61014;BME280;46899;47.542;19.082;2024-03-23T08:51:41;99784.16;;;17.53;61.63
61014;BME280;46899;47.542;19.082;2024-03-23T08:54:43;99780.28;;;17.94;60.86
61014;BME280;46899;47.542;19.082;2024-03-23T08:57:45;99782.31;;;17.66;61.22
61014;BME280;46899;47.542;19.082;2024-03-23T09:00:46;99772.56;;;18.14;59.78
61014;BME280;46899;47.542;19.082;2024-03-23T09:03:48;99774.75;;;18.66;57.59
61014;BME280;46899;47.542;19.082;2024-03-23T09:06:50;99773.19;;;18.97;56.67
61014;BME280;46899;47.542;19.082;2024-03-23T09:09:52;99770.44;;;19.09;55.36
61014;BME280;46899;47.542;19.082;2024-03-23T09:12:54;99759.38;;;19.38;54.18
61014;BME280;46899;47.542;19.082;2024-03-23T09:15:56;99759.53;;;19.68;53.32
61014;BME280;46899;47.542;19.082;2024-03-23T09:18:58;99756.69;;;19.92;53.10
61014;BME280;46899;47.542;19.082;2024-03-23T09:22:00;99745.75;;;20.37;51.59
61014;BME280;46899;47.542;19.082;2024-03-23T09:25:02;99733.75;;;20.13;51.92
61014;BME280;46899;47.542;19.082;2024-03-23T09:28:07;99731.50;;;20.08;52.07
61014;BME280;46899;47.542;19.082;2024-03-23T09:31:12;99729.44;;;19.91;52.60
61014;BME280;46899;47.542;19.082;2024-03-23T09:34:15;99721.88;;;19.87;52.64
61014;BME280;46899;47.542;19.082;2024-03-23T09:37:17;99716.34;;;20.52;50.95
61014;BME280;46899;47.542;19.082;2024-03-23T09:40:20;99715.97;;;20.66;50.73
61014;BME280;46899;47.542;19.082;2024-03-23T09:43:22;99703.50;;;20.68;50.72
61014;BME280;46899;47.542;19.082;2024-03-23T09:46:24;99697.47;;;20.66;50.36
61014;BME280;46899;47.542;19.082;2024-03-23T09:49:26;99700.75;;;20.79;50.27
61014;BME280;46899;47.542;19.082;2024-03-23T09:52:28;99700.16;;;21.15;49.41
61014;BME280;46899;47.542;19.082;2024-03-23T09:55:30;99692.41;;;21.42;49.59
61014;BME280;46899;47.542;19.082;2024-03-23T09:58:32;99686.84;;;21.26;49.37
61014;BME280;46899;47.542;19.082;2024-03-23T10:01:34;99685.00;;;21.07;50.04
61014;BME280;46899;47.542;19.082;2024-03-23T10:04:37;99680.19;;;21.01;49.87
61014;BME280;46899;47.542;19.082;2024-03-23T10:07:39;99675.56;;;21.34;49.43
61014;BME280;46899;47.542;19.082;2024-03-23T10:10:41;99664.94;;;21.05;49.70
61014;BME280;46899;47.542;19.082;2024-03-23T10:13:44;99657.97;;;21.13;50.22
61014;BME280;46899;47.542;19.082;2024-03-23T10:16:48;99651.88;;;21.51;48.25
61014;BME280;46899;47.542;19.082;2024-03-23T10:19:50;99641.44;;;21.59;47.73
61014;BME280;46899;47.542;19.082;2024-03-23T10:22:53;99626.50;;;21.68;47.24
61014;BME280;46899;47.542;19.082;2024-03-23T10:25:54;99626.09;;;21.25;48.03
61014;BME280;46899;47.542;19.082;2024-03-23T10:28:58;99622.56;;;21.72;46.97
61014;BME280;46899;47.542;19.082;2024-03-23T10:32:10;99626.34;;;22.35;43.75
61014;BME280;46899;47.542;19.082;2024-03-23T10:35:17;99619.97;;;22.28;42.32
61014;BME280;46899;47.542;19.082;2024-03-23T10:38:25;99625.16;;;22.47;42.65
61014;BME280;46899;47.542;19.082;2024-03-23T10:41:28;99614.19;;;22.69;42.00
61014;BME280;46899;47.542;19.082;2024-03-23T10:44:33;99609.31;;;22.92;41.52
61014;BME280;46899;47.542;19.082;2024-03-23T10:47:36;99594.56;;;22.62;41.51
61014;BME280;46899;47.542;19.082;2024-03-23T10:50:38;99592.16;;;22.59;40.69
61014;BME280;46899;47.542;19.082;2024-03-23T10:53:40;99580.19;;;22.55;40.60
61014;BME280;46899;47.542;19.082;2024-03-23T10:56:42;99580.16;;;22.65;40.85
61014;BME280;46899;47.542;19.082;2024-03-23T10:59:45;99580.84;;;22.39;40.89
61014;BME280;46899;47.542;19.082;2024-03-23T11:02:50;99567.91;;;22.54;40.31
61014;BME280;46899;47.542;19.082;2024-03-23T11:05:52;99563.69;;;22.61;40.40
61014;BME280;46899;47.542;19.082;2024-03-23T11:08:54;99555.03;;;23.04;40.01
61014;BME280;46899;47.542;19.082;2024-03-23T11:11:56;99552.59;;;23.46;39.53
61014;BME280;46899;47.542;19.082;2024-03-23T11:15:01;99546.31;;;23.29;39.89
61014;BME280;46899;47.542;19.082;2024-03-23T11:18:05;99547.50;;;23.78;38.63
61014;BME280;46899;47.542;19.082;2024-03-23T11:21:10;99537.44;;;24.15;37.57
61014;BME280;46899;47.542;19.082;2024-03-23T11:24:15;99531.50;;;23.70;37.34
61014;BME280;46899;47.542;19.082;2024-03-23T11:27:17;99528.59;;;24.07;36.63
61014;BME280;46899;47.542;19.082;2024-03-23T11:30:28;99517.97;;;24.07;36.90
61014;BME280;46899;47.542;19.082;2024-03-23T11:33:30;99517.50;;;24.19;37.08
61014;BME280;46899;47.542;19.082;2024-03-23T11:36:33;99505.03;;;24.12;37.91
61014;BME280;46899;47.542;19.082;2024-03-23T11:39:35;99505.44;;;24.41;36.09
61014;BME280;46899;47.542;19.082;2024-03-23T11:42:37;99510.94;;;24.06;35.80
61014;BME280;46899;47.542;19.082;2024-03-23T11:45:49;99498.66;;;23.79;35.79
61014;BME280;46899;47.542;19.082;2024-03-23T11:48:55;99479.25;;;24.12;36.20
61014;BME280;46899;47.542;19.082;2024-03-23T11:51:57;99476.88;;;24.51;34.85
61014;BME280;46899;47.542;19.082;2024-03-23T11:55:04;99469.41;;;24.71;34.27
61014;BME280;46899;47.542;19.082;2024-03-23T11:58:06;99468.50;;;24.38;34.99
61014;BME280;46899;47.542;19.082;2024-03-23T12:01:10;99464.47;;;23.84;35.40
61014;BME280;46899;47.542;19.082;2024-03-23T12:04:12;99454.88;;;23.91;36.16
61014;BME280;46899;47.542;19.082;2024-03-23T12:07:19;99452.87;;;23.93;35.86
61014;BME280;46899;47.542;19.082;2024-03-23T12:10:21;99444.94;;;23.34;36.59
61014;BME280;46899;47.542;19.082;2024-03-23T12:13:23;99437.94;;;23.07;36.74
61014;BME280;46899;47.542;19.082;2024-03-23T12:16:25;99433.34;;;22.91;37.18
61014;BME280;46899;47.542;19.082;2024-03-23T12:19:29;99429.78;;;23.00;37.17
61014;BME280;46899;47.542;19.082;2024-03-23T12:22:31;99428.94;;;22.82;36.93
61014;BME280;46899;47.542;19.082;2024-03-23T12:25:32;99420.53;;;22.34;37.06
61014;BME280;46899;47.542;19.082;2024-03-23T12:28:37;99411.63;;;22.35;37.93
61014;BME280;46899;47.542;19.082;2024-03-23T12:31:39;99412.75;;;22.32;37.34
61014;BME280;46899;47.542;19.082;2024-03-23T12:34:41;99411.47;;;22.36;37.25
61014;BME280;46899;47.542;19.082;2024-03-23T12:37:43;99405.31;;;22.36;36.72
61014;BME280;46899;47.542;19.082;2024-03-23T12:40:50;99393.66;;;22.29;36.79
61014;BME280;46899;47.542;19.082;2024-03-23T12:43:52;99393.78;;;22.10;37.17
61014;BME280;46899;47.542;19.082;2024-03-23T12:46:54;99385.78;;;22.37;37.17
61014;BME280;46899;47.542;19.082;2024-03-23T12:49:55;99383.72;;;22.48;37.04
61014;BME280;46899;47.542;19.082;2024-03-23T12:52:58;99378.41;;;22.31;36.74
61014;BME280;46899;47.542;19.082;2024-03-23T12:55:59;99371.34;;;21.87;36.92
61014;BME280;46899;47.542;19.082;2024-03-23T12:59:01;99368.59;;;21.51;37.85
61014;BME280;46899;47.542;19.082;2024-03-23T13:02:03;99363.03;;;21.45;38.34
61014;BME280;46899;47.542;19.082;2024-03-23T13:05:06;99365.50;;;21.29;38.53
61014;BME280;46899;47.542;19.082;2024-03-23T13:08:09;99361.16;;;21.28;38.04
61014;BME280;46899;47.542;19.082;2024-03-23T13:11:12;99346.88;;;21.11;38.33
61014;BME280;46899;47.542;19.082;2024-03-23T13:14:14;99356.94;;;20.98;39.36
61014;BME280;46899;47.542;19.082;2024-03-23T13:17:18;99350.53;;;20.91;39.11
61014;BME280;46899;47.542;19.082;2024-03-23T13:20:20;99340.09;;;20.80;39.12
61014;BME280;46899;47.542;19.082;2024-03-23T13:23:22;99344.19;;;20.55;39.78
61014;BME280;46899;47.542;19.082;2024-03-23T13:26:24;99329.63;;;20.41;39.59
61014;BME280;46899;47.542;19.082;2024-03-23T13:29:26;99330.59;;;20.31;39.57
61014;BME280;46899;47.542;19.082;2024-03-23T13:32:28;99330.28;;;20.15;39.58
61014;BME280;46899;47.542;19.082;2024-03-23T13:35:30;99324.56;;;20.00;40.13
61014;BME280;46899;47.542;19.082;2024-03-23T13:38:32;99321.09;;;20.09;40.04
61014;BME280;46899;47.542;19.082;2024-03-23T13:41:34;99324.03;;;20.16;40.05
61014;BME280;46899;47.542;19.082;2024-03-23T13:44:36;99319.44;;;19.89;40.21
61014;BME280;46899;47.542;19.082;2024-03-23T13:47:38;99317.84;;;19.67;40.45
61014;BME280;46899;47.542;19.082;2024-03-23T13:50:40;99311.31;;;19.62;40.26
61014;BME280;46899;47.542;19.082;2024-03-23T13:53:42;99304.09;;;19.54;40.95
61014;BME280;46899;47.542;19.082;2024-03-23T13:56:44;99307.97;;;19.60;41.22
61014;BME280;46899;47.542;19.082;2024-03-23T13:59:46;99296.84;;;19.47;41.32
61014;BME280;46899;47.542;19.082;2024-03-23T14:02:48;99294.50;;;19.53;40.93
61014;BME280;46899;47.542;19.082;2024-03-23T14:05:51;99284.37;;;19.58;41.24
61014;BME280;46899;47.542;19.082;2024-03-23T14:08:54;99289.94;;;19.74;40.88
61014;BME280;46899;47.542;19.082;2024-03-23T14:11:56;99281.31;;;19.53;40.86
61014;BME280;46899;47.542;19.082;2024-03-23T14:14:57;99284.66;;;19.65;41.56
61014;BME280;46899;47.542;19.082;2024-03-23T14:17:59;99280.75;;;19.69;41.32
61014;BME280;46899;47.542;19.082;2024-03-23T14:21:01;99271.03;;;19.60;41.09
61014;BME280;46899;47.542;19.082;2024-03-23T14:24:04;99272.84;;;19.69;41.15
61014;BME280;46899;47.542;19.082;2024-03-23T14:27:07;99271.72;;;19.71;41.34
61014;BME280;46899;47.542;19.082;2024-03-23T14:30:09;99260.75;;;19.57;42.19
61014;BME280;46899;47.542;19.082;2024-03-23T14:33:11;99258.38;;;19.54;41.99
61014;BME280;46899;47.542;19.082;2024-03-23T14:36:14;99256.84;;;19.51;41.74
61014;BME280;46899;47.542;19.082;2024-03-23T14:39:16;99248.22;;;19.40;42.20
61014;BME280;46899;47.542;19.082;2024-03-23T14:42:18;99252.25;;;19.44;42.16
61014;BME280;46899;47.542;19.082;2024-03-23T14:45:20;99249.75;;;19.42;42.24
61014;BME280;46899;47.542;19.082;2024-03-23T14:48:24;99244.41;;;19.23;42.36
61014;BME280;46899;47.542;19.082;2024-03-23T14:51:26;99240.41;;;19.29;42.86
61014;BME280;46899;47.542;19.082;2024-03-23T14:54:29;99243.34;;;19.35;42.21
61014;BME280;46899;47.542;19.082;2024-03-23T14:57:31;99239.41;;;19.30;42.08
61014;BME280;46899;47.542;19.082;2024-03-23T15:00:33;99241.19;;;19.20;42.83
61014;BME280;46899;47.542;19.082;2024-03-23T15:03:39;99239.53;;;19.19;43.06
61014;BME280;46899;47.542;19.082;2024-03-23T15:06:41;99246.97;;;19.04;43.64
61014;BME280;46899;47.542;19.082;2024-03-23T15:09:43;99254.06;;;19.03;43.10
61014;BME280;46899;47.542;19.082;2024-03-23T15:12:45;99246.16;;;19.03;43.23
61014;BME280;46899;47.542;19.082;2024-03-23T15:15:47;99249.59;;;18.94;43.75
61014;BME280;46899;47.542;19.082;2024-03-23T15:18:50;99248.03;;;18.92;43.90
61014;BME280;46899;47.542;19.082;2024-03-23T15:21:52;99246.09;;;18.94;44.34
61014;BME280;46899;47.542;19.082;2024-03-23T15:24:54;99241.94;;;18.91;44.88
61014;BME280;46899;47.542;19.082;2024-03-23T15:27:56;99236.50;;;18.83;44.74
61014;BME280;46899;47.542;19.082;2024-03-23T15:30:59;99237.09;;;18.96;44.61
61014;BME280;46899;47.542;19.082;2024-03-23T15:34:01;99241.13;;;18.91;44.60
61014;BME280;46899;47.542;19.082;2024-03-23T15:37:03;99243.44;;;18.84;45.00
61014;BME280;46899;47.542;19.082;2024-03-23T15:40:09;99247.16;;;18.82;44.86
61014;BME280;46899;47.542;19.082;2024-03-23T15:43:12;99245.66;;;18.79;45.11
61014;BME280;46899;47.542;19.082;2024-03-23T15:46:13;99241.91;;;18.82;45.08
61014;BME280;46899;47.542;19.082;2024-03-23T15:49:16;99242.84;;;18.71;45.70
61014;BME280;46899;47.542;19.082;2024-03-23T15:52:18;99236.03;;;18.69;45.77
61014;BME280;46899;47.542;19.082;2024-03-23T15:55:20;99243.62;;;18.62;46.12
61014;BME280;46899;47.542;19.082;2024-03-23T15:58:23;99244.53;;;18.52;46.50
61014;BME280;46899;47.542;19.082;2024-03-23T16:01:25;99249.53;;;18.34;46.71
61014;BME280;46899;47.542;19.082;2024-03-23T16:04:27;99243.56;;;18.32;46.35
61014;BME280;46899;47.542;19.082;2024-03-23T16:07:29;99244.13;;;18.15;46.65
61014;BME280;46899;47.542;19.082;2024-03-23T16:10:31;99248.00;;;18.11;46.68
61014;BME280;46899;47.542;19.082;2024-03-23T16:13:34;99253.44;;;18.19;46.56
61014;BME280;46899;47.542;19.082;2024-03-23T16:16:36;99239.81;;;18.14;46.13
61014;BME280;46899;47.542;19.082;2024-03-23T16:19:38;99237.94;;;18.16;45.58
61014;BME280;46899;47.542;19.082;2024-03-23T16:22:40;99240.66;;;18.14;46.19
61014;BME280;46899;47.542;19.082;2024-03-23T16:25:49;99237.56;;;18.09;45.82
61014;BME280;46899;47.542;19.082;2024-03-23T16:28:57;99244.06;;;18.05;46.25
61014;BME280;46899;47.542;19.082;2024-03-23T16:31:59;99243.06;;;17.97;46.00
61014;BME280;46899;47.542;19.082;2024-03-23T16:35:00;99234.22;;;17.87;46.33
61014;BME280;46899;47.542;19.082;2024-03-23T16:38:02;99236.28;;;17.83;46.55
61014;BME280;46899;47.542;19.082;2024-03-23T16:41:09;99236.47;;;17.70;47.60
61014;BME280;46899;47.542;19.082;2024-03-23T16:44:11;99232.06;;;17.49;47.81